sensor_id;sensor_type;location;lat;lon;timestamp;P1;durP1;ratioP1;P2;durP2;ratioP2
73100;SDS011;61288;53.446;-2.266;2022-12-07T00:01:18;19.83;;;8.18;;
73100;SDS011;61288;53.446;-2.266;2022-12-07T00:03:45;22.52;;;8.35;;
73100;SDS011;61288;53.446;-2.266;2022-12-07T00:06:13;22.50;;;8.35;;
73100;SDS011;61288;53.446;-2.266;2022-12-07T00:08:40;20.35;;;8.40;;
73100;SDS011;61288;53.446;-2.266;2022-12-07T00:13:33;22.35;;;8.90;;
73100;SDS011;61288;53.446;-2.266;2022-12-07T00:16:00;20.40;;;7.93;;
73100;SDS011;61288;53.446;-2.266;2022-12-07T00:18:30;19.65;;;7.80;;
73100;SDS011;61288;53.446;-2.266;2022-12-07T00:20:59;21.23;;;8.02;;
73100;SDS011;61288;53.446;-2.266;2022-12-07T00:23:26;24.95;;;9.00;;
73100;SDS011;61288;53.446;-2.266;2022-12-07T00:25:52;21.33;;;7.40;;
73100;SDS011;61288;53.446;-2.266;2022-12-07T00:28:18;24.10;;;8.43;;
73100;SDS011;61288;53.446;-2.266;2022-12-07T00:30:43;19.02;;;7.90;;
73100;SDS011;61288;53.446;-2.266;2022-12-07T00:33:09;16.13;;;7.22;;
73100;SDS011;61288;53.446;-2.266;2022-12-07T00:35:34;19.75;;;7.97;;
73100;SDS011;61288;53.446;-2.266;2022-12-07T00:37:59;17.58;;;6.80;;
73100;SDS011;61288;53.446;-2.266;2022-12-07T00:40:25;18.10;;;7.40;;
73100;SDS011;61288;53.446;-2.266;2022-12-07T00:42:50;21.83;;;8.13;;
73100;SDS011;61288;53.446;-2.266;2022-12-07T00:45:16;20.75;;;7.15;;
73100;SDS011;61288;53.446;-2.266;2022-12-07T00:47:41;20.88;;;7.53;;
73100;SDS011;61288;53.446;-2.266;2022-12-07T00:50:08;17.50;;;7.50;;
73100;SDS011;61288;53.446;-2.266;2022-12-07T00:52:34;21.95;;;7.25;;
73100;SDS011;61288;53.446;-2.266;2022-12-07T00:55:00;20.38;;;7.38;;
73100;SDS011;61288;53.446;-2.266;2022-12-07T00:57:25;18.85;;;6.72;;
73100;SDS011;61288;53.446;-2.266;2022-12-07T00:59:51;19.15;;;7.22;;
73100;SDS011;61288;53.446;-2.266;2022-12-07T01:02:20;17.33;;;6.38;;
73100;SDS011;61288;53.446;-2.266;2022-12-07T01:04:46;18.67;;;7.00;;
73100;SDS011;61288;53.446;-2.266;2022-12-07T01:07:13;17.52;;;6.97;;
73100;SDS011;61288;53.446;-2.266;2022-12-07T01:09:38;15.57;;;6.68;;
73100;SDS011;61288;53.446;-2.266;2022-12-07T01:12:04;19.73;;;6.22;;
73100;SDS011;61288;53.446;-2.266;2022-12-07T01:14:31;18.95;;;6.70;;
73100;SDS011;61288;53.446;-2.266;2022-12-07T01:16:57;18.13;;;6.90;;
73100;SDS011;61288;53.446;-2.266;2022-12-07T01:19:22;19.02;;;6.35;;
73100;SDS011;61288;53.446;-2.266;2022-12-07T01:21:48;17.35;;;6.22;;
73100;SDS011;61288;53.446;-2.266;2022-12-07T01:24:13;16.52;;;6.38;;
73100;SDS011;61288;53.446;-2.266;2022-12-07T01:26:39;17.73;;;6.18;;
73100;SDS011;61288;53.446;-2.266;2022-12-07T01:29:06;16.17;;;6.90;;
73100;SDS011;61288;53.446;-2.266;2022-12-07T01:31:31;18.02;;;6.93;;
73100;SDS011;61288;53.446;-2.266;2022-12-07T01:33:57;22.45;;;7.38;;
73100;SDS011;61288;53.446;-2.266;2022-12-07T01:36:26;18.02;;;6.32;;
73100;SDS011;61288;53.446;-2.266;2022-12-07T01:39:00;22.60;;;8.07;;
73100;SDS011;61288;53.446;-2.266;2022-12-07T01:41:29;16.15;;;6.63;;
73100;SDS011;61288;53.446;-2.266;2022-12-07T01:44:18;21.52;;;6.88;;
73100;SDS011;61288;53.446;-2.266;2022-12-07T01:49:16;15.48;;;6.80;;
73100;SDS011;61288;53.446;-2.266;2022-12-07T01:51:47;17.13;;;6.32;;
73100;SDS011;61288;53.446;-2.266;2022-12-07T01:54:16;21.67;;;7.22;;
73100;SDS011;61288;53.446;-2.266;2022-12-07T01:56:47;15.73;;;6.32;;
73100;SDS011;61288;53.446;-2.266;2022-12-07T01:59:17;19.13;;;6.53;;
73100;SDS011;61288;53.446;-2.266;2022-12-07T02:01:45;16.77;;;6.10;;
73100;SDS011;61288;53.446;-2.266;2022-12-07T02:04:11;16.67;;;6.63;;
73100;SDS011;61288;53.446;-2.266;2022-12-07T02:06:37;17.33;;;6.18;;
73100;SDS011;61288;53.446;-2.266;2022-12-07T02:09:03;15.45;;;6.38;;
73100;SDS011;61288;53.446;-2.266;2022-12-07T02:11:30;18.80;;;7.18;;
73100;SDS011;61288;53.446;-2.266;2022-12-07T02:13:57;15.60;;;6.57;;
73100;SDS011;61288;53.446;-2.266;2022-12-07T02:16:29;17.35;;;6.53;;
73100;SDS011;61288;53.446;-2.266;2022-12-07T02:22:07;17.90;;;6.43;;
73100;SDS011;61288;53.446;-2.266;2022-12-07T02:27:45;17.02;;;6.47;;
73100;SDS011;61288;53.446;-2.266;2022-12-07T02:30:15;14.60;;;6.13;;
73100;SDS011;61288;53.446;-2.266;2022-12-07T02:32:59;15.10;;;6.63;;
73100;SDS011;61288;53.446;-2.266;2022-12-07T02:40:39;16.92;;;5.57;;
73100;SDS011;61288;53.446;-2.266;2022-12-07T02:43:23;17.00;;;6.57;;
73100;SDS011;61288;53.446;-2.266;2022-12-07T02:45:56;17.15;;;6.30;;
73100;SDS011;61288;53.446;-2.266;2022-12-07T02:48:29;16.98;;;6.68;;
73100;SDS011;61288;53.446;-2.266;2022-12-07T02:50:59;19.73;;;6.47;;
73100;SDS011;61288;53.446;-2.266;2022-12-07T02:53:42;23.33;;;7.25;;
73100;SDS011;61288;53.446;-2.266;2022-12-07T02:56:22;15.68;;;6.07;;
73100;SDS011;61288;53.446;-2.266;2022-12-07T03:15:45;17.25;;;6.38;;
73100;SDS011;61288;53.446;-2.266;2022-12-07T03:18:12;18.25;;;6.43;;
73100;SDS011;61288;53.446;-2.266;2022-12-07T03:20:41;15.95;;;6.47;;
73100;SDS011;61288;53.446;-2.266;2022-12-07T03:23:10;19.30;;;7.13;;
73100;SDS011;61288;53.446;-2.266;2022-12-07T03:25:49;19.20;;;7.47;;
73100;SDS011;61288;53.446;-2.266;2022-12-07T03:28:20;20.17;;;6.60;;
73100;SDS011;61288;53.446;-2.266;2022-12-07T03:30:54;16.33;;;6.22;;
73100;SDS011;61288;53.446;-2.266;2022-12-07T03:33:49;16.55;;;6.47;;
73100;SDS011;61288;53.446;-2.266;2022-12-07T03:36:28;16.25;;;6.30;;
73100;SDS011;61288;53.446;-2.266;2022-12-07T03:39:12;15.27;;;6.07;;
73100;SDS011;61288;53.446;-2.266;2022-12-07T03:41:51;17.33;;;6.95;;
73100;SDS011;61288;53.446;-2.266;2022-12-07T03:44:26;19.13;;;7.10;;
73100;SDS011;61288;53.446;-2.266;2022-12-07T03:50:07;19.13;;;6.55;;
73100;SDS011;61288;53.446;-2.266;2022-12-07T03:53:03;18.25;;;6.20;;
73100;SDS011;61288;53.446;-2.266;2022-12-07T03:55:39;20.40;;;7.13;;
73100;SDS011;61288;53.446;-2.266;2022-12-07T03:58:12;19.63;;;7.28;;
73100;SDS011;61288;53.446;-2.266;2022-12-07T04:00:43;21.88;;;6.68;;
73100;SDS011;61288;53.446;-2.266;2022-12-07T04:03:11;21.88;;;7.57;;
73100;SDS011;61288;53.446;-2.266;2022-12-07T04:05:38;16.15;;;6.18;;
73100;SDS011;61288;53.446;-2.266;2022-12-07T04:08:06;17.77;;;6.38;;
73100;SDS011;61288;53.446;-2.266;2022-12-07T04:10:34;16.27;;;6.40;;
73100;SDS011;61288;53.446;-2.266;2022-12-07T04:13:02;16.75;;;6.60;;
73100;SDS011;61288;53.446;-2.266;2022-12-07T04:15:29;19.23;;;6.80;;
73100;SDS011;61288;53.446;-2.266;2022-12-07T04:17:55;17.92;;;6.45;;
73100;SDS011;61288;53.446;-2.266;2022-12-07T04:20:21;20.10;;;6.55;;
73100;SDS011;61288;53.446;-2.266;2022-12-07T04:22:47;17.75;;;6.70;;
73100;SDS011;61288;53.446;-2.266;2022-12-07T04:25:14;18.35;;;7.55;;
73100;SDS011;61288;53.446;-2.266;2022-12-07T04:27:41;16.48;;;6.13;;
73100;SDS011;61288;53.446;-2.266;2022-12-07T04:30:09;15.43;;;6.13;;
73100;SDS011;61288;53.446;-2.266;2022-12-07T04:32:37;16.58;;;6.25;;
73100;SDS011;61288;53.446;-2.266;2022-12-07T04:35:03;20.98;;;6.78;;
73100;SDS011;61288;53.446;-2.266;2022-12-07T04:37:29;17.48;;;6.32;;
73100;SDS011;61288;53.446;-2.266;2022-12-07T04:39:55;17.13;;;6.07;;
73100;SDS011;61288;53.446;-2.266;2022-12-07T04:42:21;19.45;;;6.53;;
73100;SDS011;61288;53.446;-2.266;2022-12-07T04:44:47;14.65;;;6.68;;
73100;SDS011;61288;53.446;-2.266;2022-12-07T04:47:17;17.30;;;6.43;;
73100;SDS011;61288;53.446;-2.266;2022-12-07T04:49:44;19.95;;;7.07;;
73100;SDS011;61288;53.446;-2.266;2022-12-07T04:52:12;15.95;;;7.28;;
73100;SDS011;61288;53.446;-2.266;2022-12-07T04:54:39;19.65;;;6.53;;
73100;SDS011;61288;53.446;-2.266;2022-12-07T04:57:04;14.73;;;6.30;;
73100;SDS011;61288;53.446;-2.266;2022-12-07T04:59:30;13.75;;;5.93;;
73100;SDS011;61288;53.446;-2.266;2022-12-07T05:01:55;17.40;;;6.53;;
73100;SDS011;61288;53.446;-2.266;2022-12-07T05:04:21;19.08;;;6.72;;
73100;SDS011;61288;53.446;-2.266;2022-12-07T05:06:47;15.63;;;6.88;;
73100;SDS011;61288;53.446;-2.266;2022-12-07T05:09:13;18.52;;;6.95;;
73100;SDS011;61288;53.446;-2.266;2022-12-07T05:11:39;18.42;;;7.18;;
73100;SDS011;61288;53.446;-2.266;2022-12-07T05:14:10;19.73;;;6.63;;
73100;SDS011;61288;53.446;-2.266;2022-12-07T05:16:46;16.02;;;6.40;;
73100;SDS011;61288;53.446;-2.266;2022-12-07T05:19:14;16.08;;;6.35;;
73100;SDS011;61288;53.446;-2.266;2022-12-07T05:21:40;15.93;;;6.40;;
73100;SDS011;61288;53.446;-2.266;2022-12-07T05:24:06;18.98;;;6.70;;
73100;SDS011;61288;53.446;-2.266;2022-12-07T05:26:34;16.08;;;6.43;;
73100;SDS011;61288;53.446;-2.266;2022-12-07T05:29:00;17.92;;;6.63;;
73100;SDS011;61288;53.446;-2.266;2022-12-07T05:37:02;18.30;;;6.70;;
73100;SDS011;61288;53.446;-2.266;2022-12-07T05:39:28;16.40;;;6.57;;
73100;SDS011;61288;53.446;-2.266;2022-12-07T05:41:54;17.08;;;7.05;;
73100;SDS011;61288;53.446;-2.266;2022-12-07T05:44:42;17.85;;;6.18;;
73100;SDS011;61288;53.446;-2.266;2022-12-07T05:47:11;17.55;;;6.10;;
73100;SDS011;61288;53.446;-2.266;2022-12-07T05:49:37;17.23;;;6.25;;
73100;SDS011;61288;53.446;-2.266;2022-12-07T05:52:03;16.17;;;7.15;;
73100;SDS011;61288;53.446;-2.266;2022-12-07T05:54:29;18.85;;;6.75;;
73100;SDS011;61288;53.446;-2.266;2022-12-07T05:56:58;18.17;;;6.25;;
73100;SDS011;61288;53.446;-2.266;2022-12-07T05:59:23;17.52;;;6.32;;
73100;SDS011;61288;53.446;-2.266;2022-12-07T06:01:50;18.27;;;7.30;;
73100;SDS011;61288;53.446;-2.266;2022-12-07T06:04:16;13.77;;;6.20;;
73100;SDS011;61288;53.446;-2.266;2022-12-07T06:06:42;16.20;;;7.10;;
73100;SDS011;61288;53.446;-2.266;2022-12-07T06:09:09;14.88;;;6.07;;
73100;SDS011;61288;53.446;-2.266;2022-12-07T06:11:35;19.60;;;6.60;;
73100;SDS011;61288;53.446;-2.266;2022-12-07T06:14:19;16.10;;;7.10;;
73100;SDS011;61288;53.446;-2.266;2022-12-07T06:16:45;17.33;;;6.93;;
73100;SDS011;61288;53.446;-2.266;2022-12-07T06:19:10;18.52;;;6.57;;
73100;SDS011;61288;53.446;-2.266;2022-12-07T06:21:36;18.80;;;6.72;;
73100;SDS011;61288;53.446;-2.266;2022-12-07T06:24:02;18.58;;;7.60;;
73100;SDS011;61288;53.446;-2.266;2022-12-07T06:26:27;15.27;;;6.63;;
73100;SDS011;61288;53.446;-2.266;2022-12-07T06:28:53;22.33;;;7.47;;
73100;SDS011;61288;53.446;-2.266;2022-12-07T06:31:18;15.82;;;6.45;;
73100;SDS011;61288;53.446;-2.266;2022-12-07T06:33:44;17.02;;;6.88;;
73100;SDS011;61288;53.446;-2.266;2022-12-07T06:36:09;16.23;;;6.53;;
73100;SDS011;61288;53.446;-2.266;2022-12-07T06:38:35;20.08;;;6.75;;
73100;SDS011;61288;53.446;-2.266;2022-12-07T06:41:01;20.10;;;7.60;;
73100;SDS011;61288;53.446;-2.266;2022-12-07T06:43:27;16.38;;;6.53;;
73100;SDS011;61288;53.446;-2.266;2022-12-07T06:45:54;18.80;;;7.10;;
73100;SDS011;61288;53.446;-2.266;2022-12-07T06:48:19;18.08;;;7.43;;
73100;SDS011;61288;53.446;-2.266;2022-12-07T06:50:45;19.35;;;7.45;;
73100;SDS011;61288;53.446;-2.266;2022-12-07T06:53:11;19.27;;;7.53;;
73100;SDS011;61288;53.446;-2.266;2022-12-07T06:55:37;17.38;;;7.13;;
73100;SDS011;61288;53.446;-2.266;2022-12-07T06:58:02;19.27;;;7.30;;
73100;SDS011;61288;53.446;-2.266;2022-12-07T07:00:28;19.25;;;7.57;;
73100;SDS011;61288;53.446;-2.266;2022-12-07T07:02:54;20.58;;;7.43;;
73100;SDS011;61288;53.446;-2.266;2022-12-07T07:05:19;18.95;;;7.30;;
73100;SDS011;61288;53.446;-2.266;2022-12-07T07:07:48;19.98;;;7.35;;
73100;SDS011;61288;53.446;-2.266;2022-12-07T07:10:15;20.48;;;7.20;;
73100;SDS011;61288;53.446;-2.266;2022-12-07T07:12:41;20.77;;;7.43;;
73100;SDS011;61288;53.446;-2.266;2022-12-07T07:15:06;18.70;;;6.68;;
73100;SDS011;61288;53.446;-2.266;2022-12-07T07:17:32;17.30;;;6.65;;
73100;SDS011;61288;53.446;-2.266;2022-12-07T07:19:59;17.77;;;6.72;;
73100;SDS011;61288;53.446;-2.266;2022-12-07T07:22:25;19.25;;;7.00;;
73100;SDS011;61288;53.446;-2.266;2022-12-07T07:24:51;15.88;;;6.15;;
73100;SDS011;61288;53.446;-2.266;2022-12-07T07:27:17;19.80;;;7.28;;
73100;SDS011;61288;53.446;-2.266;2022-12-07T07:29:43;15.32;;;6.32;;
73100;SDS011;61288;53.446;-2.266;2022-12-07T07:32:09;20.13;;;7.28;;
73100;SDS011;61288;53.446;-2.266;2022-12-07T07:34:34;19.73;;;6.90;;
73100;SDS011;61288;53.446;-2.266;2022-12-07T07:37:00;17.52;;;7.10;;
73100;SDS011;61288;53.446;-2.266;2022-12-07T07:39:26;17.42;;;7.25;;
73100;SDS011;61288;53.446;-2.266;2022-12-07T07:41:51;16.45;;;6.72;;
73100;SDS011;61288;53.446;-2.266;2022-12-07T07:44:18;16.73;;;7.38;;
73100;SDS011;61288;53.446;-2.266;2022-12-07T07:46:46;21.58;;;7.75;;
73100;SDS011;61288;53.446;-2.266;2022-12-07T07:49:12;20.73;;;7.82;;
73100;SDS011;61288;53.446;-2.266;2022-12-07T07:51:37;22.75;;;8.00;;
73100;SDS011;61288;53.446;-2.266;2022-12-07T07:54:03;20.02;;;8.20;;
73100;SDS011;61288;53.446;-2.266;2022-12-07T07:56:28;23.80;;;8.63;;
73100;SDS011;61288;53.446;-2.266;2022-12-07T07:58:54;17.75;;;7.13;;
73100;SDS011;61288;53.446;-2.266;2022-12-07T08:01:19;21.38;;;7.88;;
73100;SDS011;61288;53.446;-2.266;2022-12-07T08:03:46;22.08;;;7.68;;
73100;SDS011;61288;53.446;-2.266;2022-12-07T08:06:12;22.63;;;7.88;;
73100;SDS011;61288;53.446;-2.266;2022-12-07T08:08:38;21.02;;;7.95;;
73100;SDS011;61288;53.446;-2.266;2022-12-07T08:11:07;19.13;;;7.25;;
73100;SDS011;61288;53.446;-2.266;2022-12-07T08:13:33;19.60;;;7.38;;
73100;SDS011;61288;53.446;-2.266;2022-12-07T08:16:04;21.30;;;8.18;;
73100;SDS011;61288;53.446;-2.266;2022-12-07T08:18:38;24.35;;;8.68;;
73100;SDS011;61288;53.446;-2.266;2022-12-07T08:21:05;18.23;;;7.15;;
73100;SDS011;61288;53.446;-2.266;2022-12-07T08:23:31;19.42;;;7.38;;
73100;SDS011;61288;53.446;-2.266;2022-12-07T08:26:05;23.05;;;8.02;;
73100;SDS011;61288;53.446;-2.266;2022-12-07T08:28:32;16.67;;;6.88;;
73100;SDS011;61288;53.446;-2.266;2022-12-07T08:31:06;21.42;;;8.00;;
73100;SDS011;61288;53.446;-2.266;2022-12-07T08:33:42;29.05;;;8.15;;
73100;SDS011;61288;53.446;-2.266;2022-12-07T08:36:10;19.77;;;7.90;;
73100;SDS011;61288;53.446;-2.266;2022-12-07T08:38:38;19.73;;;7.82;;
73100;SDS011;61288;53.446;-2.266;2022-12-07T08:41:05;21.15;;;8.57;;
73100;SDS011;61288;53.446;-2.266;2022-12-07T08:43:31;19.95;;;8.13;;
73100;SDS011;61288;53.446;-2.266;2022-12-07T08:48:44;18.35;;;7.03;;
73100;SDS011;61288;53.446;-2.266;2022-12-07T08:51:19;21.95;;;7.88;;
73100;SDS011;61288;53.446;-2.266;2022-12-07T08:53:46;22.10;;;8.13;;
73100;SDS011;61288;53.446;-2.266;2022-12-07T08:56:13;23.33;;;8.82;;
73100;SDS011;61288;53.446;-2.266;2022-12-07T08:58:39;20.20;;;7.90;;
73100;SDS011;61288;53.446;-2.266;2022-12-07T09:01:05;22.90;;;9.23;;
73100;SDS011;61288;53.446;-2.266;2022-12-07T09:03:31;18.95;;;7.60;;
73100;SDS011;61288;53.446;-2.266;2022-12-07T09:05:57;18.42;;;7.70;;
73100;SDS011;61288;53.446;-2.266;2022-12-07T09:08:23;20.42;;;8.50;;
73100;SDS011;61288;53.446;-2.266;2022-12-07T09:10:54;19.00;;;7.93;;
73100;SDS011;61288;53.446;-2.266;2022-12-07T09:13:20;18.80;;;8.15;;
73100;SDS011;61288;53.446;-2.266;2022-12-07T09:15:46;18.60;;;7.53;;
73100;SDS011;61288;53.446;-2.266;2022-12-07T09:18:12;24.95;;;9.10;;
73100;SDS011;61288;53.446;-2.266;2022-12-07T09:20:37;22.75;;;8.18;;
73100;SDS011;61288;53.446;-2.266;2022-12-07T09:23:05;21.45;;;8.60;;
73100;SDS011;61288;53.446;-2.266;2022-12-07T09:25:32;22.95;;;8.35;;
73100;SDS011;61288;53.446;-2.266;2022-12-07T09:28:02;20.73;;;7.95;;
73100;SDS011;61288;53.446;-2.266;2022-12-07T09:30:28;19.27;;;7.68;;
73100;SDS011;61288;53.446;-2.266;2022-12-07T09:32:54;21.08;;;8.27;;
73100;SDS011;61288;53.446;-2.266;2022-12-07T09:35:21;24.05;;;8.85;;
73100;SDS011;61288;53.446;-2.266;2022-12-07T09:37:48;20.83;;;8.63;;
73100;SDS011;61288;53.446;-2.266;2022-12-07T09:40:22;19.20;;;7.88;;
73100;SDS011;61288;53.446;-2.266;2022-12-07T09:42:53;19.27;;;7.25;;
73100;SDS011;61288;53.446;-2.266;2022-12-07T09:47:55;21.67;;;8.85;;
73100;SDS011;61288;53.446;-2.266;2022-12-07T09:50:23;20.80;;;8.43;;
73100;SDS011;61288;53.446;-2.266;2022-12-07T09:52:51;20.10;;;8.88;;
73100;SDS011;61288;53.446;-2.266;2022-12-07T09:55:27;20.55;;;8.73;;
73100;SDS011;61288;53.446;-2.266;2022-12-07T09:57:55;28.63;;;10.15;;
73100;SDS011;61288;53.446;-2.266;2022-12-07T10:00:23;23.48;;;9.55;;
73100;SDS011;61288;53.446;-2.266;2022-12-07T10:03:00;24.58;;;10.60;;
73100;SDS011;61288;53.446;-2.266;2022-12-07T10:08:00;24.60;;;8.63;;
73100;SDS011;61288;53.446;-2.266;2022-12-07T10:12:56;28.10;;;10.23;;
73100;SDS011;61288;53.446;-2.266;2022-12-07T10:21:10;22.30;;;8.65;;
73100;SDS011;61288;53.446;-2.266;2022-12-07T10:23:36;24.10;;;9.25;;
73100;SDS011;61288;53.446;-2.266;2022-12-07T10:26:19;24.92;;;9.13;;
73100;SDS011;61288;53.446;-2.266;2022-12-07T10:28:52;24.08;;;9.52;;
73100;SDS011;61288;53.446;-2.266;2022-12-07T10:31:18;24.27;;;9.05;;
73100;SDS011;61288;53.446;-2.266;2022-12-07T10:33:56;29.85;;;9.82;;
73100;SDS011;61288;53.446;-2.266;2022-12-07T10:36:37;23.90;;;8.40;;
73100;SDS011;61288;53.446;-2.266;2022-12-07T10:39:14;20.05;;;8.02;;
73100;SDS011;61288;53.446;-2.266;2022-12-07T10:41:56;17.17;;;8.05;;
73100;SDS011;61288;53.446;-2.266;2022-12-07T10:44:27;18.75;;;7.60;;
73100;SDS011;61288;53.446;-2.266;2022-12-07T10:52:31;25.05;;;9.63;;
73100;SDS011;61288;53.446;-2.266;2022-12-07T11:00:21;19.13;;;7.72;;
73100;SDS011;61288;53.446;-2.266;2022-12-07T11:02:59;20.83;;;7.97;;
73100;SDS011;61288;53.446;-2.266;2022-12-07T11:13:18;19.23;;;8.40;;
73100;SDS011;61288;53.446;-2.266;2022-12-07T11:21:35;16.85;;;7.50;;
73100;SDS011;61288;53.446;-2.266;2022-12-07T11:24:40;21.27;;;8.32;;
73100;SDS011;61288;53.446;-2.266;2022-12-07T11:38:15;17.15;;;6.80;;
73100;SDS011;61288;53.446;-2.266;2022-12-07T11:40:49;16.73;;;6.97;;
73100;SDS011;61288;53.446;-2.266;2022-12-07T11:43:26;14.20;;;7.45;;
73100;SDS011;61288;53.446;-2.266;2022-12-07T11:46:03;14.23;;;6.30;;
73100;SDS011;61288;53.446;-2.266;2022-12-07T11:51:06;19.98;;;7.88;;
73100;SDS011;61288;53.446;-2.266;2022-12-07T11:53:38;17.60;;;7.57;;
73100;SDS011;61288;53.446;-2.266;2022-12-07T12:04:25;21.52;;;8.00;;
73100;SDS011;61288;53.446;-2.266;2022-12-07T12:06:37;19.58;;;8.60;;
73100;SDS011;61288;53.446;-2.266;2022-12-07T12:21:25;22.15;;;9.43;;
73100;SDS011;61288;53.446;-2.266;2022-12-07T12:23:37;19.55;;;8.07;;
73100;SDS011;61288;53.446;-2.266;2022-12-07T12:26:08;23.10;;;8.98;;
73100;SDS011;61288;53.446;-2.266;2022-12-07T12:34:31;18.73;;;7.78;;
73100;SDS011;61288;53.446;-2.266;2022-12-07T12:36:57;18.45;;;7.53;;
73100;SDS011;61288;53.446;-2.266;2022-12-07T12:39:24;22.83;;;7.55;;
73100;SDS011;61288;53.446;-2.266;2022-12-07T12:41:51;13.85;;;6.50;;
73100;SDS011;61288;53.446;-2.266;2022-12-07T12:46:57;19.27;;;7.82;;
73100;SDS011;61288;53.446;-2.266;2022-12-07T12:54:57;16.33;;;7.07;;
73100;SDS011;61288;53.446;-2.266;2022-12-07T12:59:58;14.55;;;5.72;;
73100;SDS011;61288;53.446;-2.266;2022-12-07T13:15:40;14.45;;;4.70;;
73100;SDS011;61288;53.446;-2.266;2022-12-07T13:23:36;17.02;;;5.75;;
73100;SDS011;61288;53.446;-2.266;2022-12-07T13:32:02;11.35;;;4.82;;
73100;SDS011;61288;53.446;-2.266;2022-12-07T13:34:38;13.38;;;4.82;;
73100;SDS011;61288;53.446;-2.266;2022-12-07T13:39:57;11.48;;;4.88;;
73100;SDS011;61288;53.446;-2.266;2022-12-07T13:42:25;11.40;;;4.15;;
73100;SDS011;61288;53.446;-2.266;2022-12-07T13:44:55;14.00;;;4.25;;
73100;SDS011;61288;53.446;-2.266;2022-12-07T13:50:15;10.10;;;4.30;;
73100;SDS011;61288;53.446;-2.266;2022-12-07T13:52:47;10.25;;;3.65;;
73100;SDS011;61288;53.446;-2.266;2022-12-07T13:55:15;12.27;;;4.57;;
73100;SDS011;61288;53.446;-2.266;2022-12-07T13:57:44;12.77;;;4.45;;
73100;SDS011;61288;53.446;-2.266;2022-12-07T14:00:19;12.85;;;4.57;;
73100;SDS011;61288;53.446;-2.266;2022-12-07T14:05:42;13.52;;;4.90;;
73100;SDS011;61288;53.446;-2.266;2022-12-07T14:10:42;13.20;;;4.57;;
73100;SDS011;61288;53.446;-2.266;2022-12-07T14:18:56;11.15;;;3.97;;
73100;SDS011;61288;53.446;-2.266;2022-12-07T14:21:25;13.65;;;4.78;;
73100;SDS011;61288;53.446;-2.266;2022-12-07T14:24:04;10.90;;;4.45;;
73100;SDS011;61288;53.446;-2.266;2022-12-07T14:26:46;14.60;;;5.20;;
73100;SDS011;61288;53.446;-2.266;2022-12-07T14:29:20;12.07;;;4.18;;
73100;SDS011;61288;53.446;-2.266;2022-12-07T14:31:57;11.73;;;4.57;;
73100;SDS011;61288;53.446;-2.266;2022-12-07T14:34:24;15.60;;;4.72;;
73100;SDS011;61288;53.446;-2.266;2022-12-07T14:36:50;12.77;;;4.55;;
73100;SDS011;61288;53.446;-2.266;2022-12-07T14:39:16;12.13;;;3.97;;
73100;SDS011;61288;53.446;-2.266;2022-12-07T14:41:41;10.00;;;3.80;;
73100;SDS011;61288;53.446;-2.266;2022-12-07T14:44:16;13.55;;;4.03;;
73100;SDS011;61288;53.446;-2.266;2022-12-07T14:46:43;13.55;;;3.83;;
73100;SDS011;61288;53.446;-2.266;2022-12-07T14:49:08;14.55;;;4.32;;
73100;SDS011;61288;53.446;-2.266;2022-12-07T14:51:36;10.10;;;3.65;;
73100;SDS011;61288;53.446;-2.266;2022-12-07T14:54:05;10.98;;;3.05;;
73100;SDS011;61288;53.446;-2.266;2022-12-07T14:56:36;9.35;;;3.00;;
73100;SDS011;61288;53.446;-2.266;2022-12-07T14:59:02;10.00;;;3.20;;
73100;SDS011;61288;53.446;-2.266;2022-12-07T15:01:27;12.68;;;3.92;;
73100;SDS011;61288;53.446;-2.266;2022-12-07T15:03:53;9.88;;;3.35;;
73100;SDS011;61288;53.446;-2.266;2022-12-07T15:06:18;11.80;;;3.55;;
73100;SDS011;61288;53.446;-2.266;2022-12-07T15:08:44;12.25;;;3.45;;
73100;SDS011;61288;53.446;-2.266;2022-12-07T15:11:14;9.88;;;2.95;;
73100;SDS011;61288;53.446;-2.266;2022-12-07T15:13:42;10.57;;;3.00;;
73100;SDS011;61288;53.446;-2.266;2022-12-07T15:16:26;15.30;;;4.40;;
73100;SDS011;61288;53.446;-2.266;2022-12-07T15:18:52;15.80;;;4.82;;
73100;SDS011;61288;53.446;-2.266;2022-12-07T15:21:17;12.38;;;4.00;;
73100;SDS011;61288;53.446;-2.266;2022-12-07T15:23:42;13.57;;;3.58;;
73100;SDS011;61288;53.446;-2.266;2022-12-07T15:26:09;11.43;;;3.70;;
73100;SDS011;61288;53.446;-2.266;2022-12-07T15:28:35;14.45;;;3.90;;
73100;SDS011;61288;53.446;-2.266;2022-12-07T15:31:01;11.50;;;3.75;;
73100;SDS011;61288;53.446;-2.266;2022-12-07T15:33:26;11.77;;;3.38;;
73100;SDS011;61288;53.446;-2.266;2022-12-07T15:35:52;12.85;;;3.13;;
73100;SDS011;61288;53.446;-2.266;2022-12-07T15:38:18;17.30;;;3.20;;
73100;SDS011;61288;53.446;-2.266;2022-12-07T15:40:46;9.02;;;2.88;;
73100;SDS011;61288;53.446;-2.266;2022-12-07T15:43:12;12.63;;;3.50;;
73100;SDS011;61288;53.446;-2.266;2022-12-07T15:45:56;12.10;;;3.63;;
73100;SDS011;61288;53.446;-2.266;2022-12-07T15:48:22;13.45;;;3.20;;
73100;SDS011;61288;53.446;-2.266;2022-12-07T15:50:50;13.38;;;3.65;;
73100;SDS011;61288;53.446;-2.266;2022-12-07T15:53:16;12.35;;;3.28;;
73100;SDS011;61288;53.446;-2.266;2022-12-07T15:55:42;12.00;;;3.70;;
73100;SDS011;61288;53.446;-2.266;2022-12-07T15:58:07;14.55;;;3.08;;
73100;SDS011;61288;53.446;-2.266;2022-12-07T16:00:34;11.77;;;3.00;;
73100;SDS011;61288;53.446;-2.266;2022-12-07T16:02:59;9.60;;;2.80;;
73100;SDS011;61288;53.446;-2.266;2022-12-07T16:05:25;9.93;;;2.88;;
73100;SDS011;61288;53.446;-2.266;2022-12-07T16:07:50;8.20;;;3.03;;
73100;SDS011;61288;53.446;-2.266;2022-12-07T16:10:16;8.82;;;2.72;;
73100;SDS011;61288;53.446;-2.266;2022-12-07T16:12:41;14.90;;;3.10;;
73100;SDS011;61288;53.446;-2.266;2022-12-07T16:15:07;10.05;;;3.13;;
73100;SDS011;61288;53.446;-2.266;2022-12-07T16:17:33;14.32;;;3.03;;
73100;SDS011;61288;53.446;-2.266;2022-12-07T16:19:58;9.23;;;2.58;;
73100;SDS011;61288;53.446;-2.266;2022-12-07T16:22:24;8.20;;;2.55;;
73100;SDS011;61288;53.446;-2.266;2022-12-07T16:24:49;7.60;;;2.33;;
73100;SDS011;61288;53.446;-2.266;2022-12-07T16:27:15;7.40;;;2.13;;
73100;SDS011;61288;53.446;-2.266;2022-12-07T16:29:41;7.22;;;1.98;;
73100;SDS011;61288;53.446;-2.266;2022-12-07T16:32:07;9.77;;;2.60;;
73100;SDS011;61288;53.446;-2.266;2022-12-07T16:34:32;11.75;;;2.88;;
73100;SDS011;61288;53.446;-2.266;2022-12-07T16:36:58;9.13;;;2.95;;
73100;SDS011;61288;53.446;-2.266;2022-12-07T16:39:23;9.65;;;2.90;;
73100;SDS011;61288;53.446;-2.266;2022-12-07T16:41:49;9.35;;;3.05;;
73100;SDS011;61288;53.446;-2.266;2022-12-07T16:44:15;10.73;;;2.90;;
73100;SDS011;61288;53.446;-2.266;2022-12-07T16:46:41;9.15;;;2.90;;
73100;SDS011;61288;53.446;-2.266;2022-12-07T16:49:10;8.63;;;2.95;;
73100;SDS011;61288;53.446;-2.266;2022-12-07T16:51:36;9.82;;;2.78;;
73100;SDS011;61288;53.446;-2.266;2022-12-07T16:54:02;10.65;;;2.90;;
73100;SDS011;61288;53.446;-2.266;2022-12-07T16:56:27;9.77;;;2.88;;
73100;SDS011;61288;53.446;-2.266;2022-12-07T16:58:54;11.57;;;3.28;;
73100;SDS011;61288;53.446;-2.266;2022-12-07T17:01:20;10.07;;;3.15;;
73100;SDS011;61288;53.446;-2.266;2022-12-07T17:03:51;15.32;;;3.95;;
73100;SDS011;61288;53.446;-2.266;2022-12-07T17:06:18;13.65;;;4.22;;
73100;SDS011;61288;53.446;-2.266;2022-12-07T17:08:47;13.27;;;4.30;;
73100;SDS011;61288;53.446;-2.266;2022-12-07T17:11:19;14.05;;;4.32;;
73100;SDS011;61288;53.446;-2.266;2022-12-07T17:13:50;20.63;;;7.25;;
73100;SDS011;61288;53.446;-2.266;2022-12-07T17:16:35;19.67;;;6.85;;
73100;SDS011;61288;53.446;-2.266;2022-12-07T17:19:09;19.38;;;6.15;;
73100;SDS011;61288;53.446;-2.266;2022-12-07T17:21:37;13.65;;;5.28;;
73100;SDS011;61288;53.446;-2.266;2022-12-07T17:24:04;14.90;;;5.07;;